Time;durP1;ratioP1;P1;durP2;ratioP2;P2;SDS_P1;SDS_P2;PMS_P1;PMS_P2;Temp;Humidity;BMP_temperature;BMP_pressure;BME280_temperature;BME280_humidity;BME280_pressure;Samples;Min_cycle;Max_cycle;Signal;HPM_P1;HPM_P2
2023/02/08 00:01:42;;;;;;;14.50;9.47;;;-5.70;99.90;;;;;;7382238;19;20381;-77
2023/02/08 00:04:08;;;;;;;13.33;9.23;;;-5.70;99.90;;;;;;7381078;19;20392;-76
2023/02/08 00:06:34;;;;;;;16.77;9.43;;;-5.80;99.90;;;;;;7383787;19;20324;-78
2023/02/08 00:09:00;;;;;;;16.48;9.77;;;-5.80;99.90;;;;;;7383323;19;20316;-78
2023/02/08 00:11:27;;;;;;;14.80;10.30;;;-5.80;99.90;;;;;;7384456;19;20352;-78
2023/02/08 00:13:52;;;;;;;21.27;11.70;;;-5.80;99.90;;;;;;7382843;19;20997;-78
2023/02/08 00:16:18;;;;;;;19.03;11.73;;;-5.90;99.90;;;;;;7381552;19;20324;-80
2023/02/08 00:18:43;;;;;;;20.40;12.63;;;-6.00;99.90;;;;;;7383990;19;20360;-78
2023/02/08 00:21:13;;;;;;;19.07;11.17;;;-6.00;99.90;;;;;;7383727;19;20391;-78
2023/02/08 00:23:39;;;;;;;20.30;11.13;;;-6.10;99.90;;;;;;7382768;19;20878;-79
2023/02/08 00:26:06;;;;;;;19.23;10.70;;;-6.10;99.90;;;;;;7385379;19;20329;-78
2023/02/08 00:28:32;;;;;;;15.98;10.40;;;-6.10;99.90;;;;;;7383118;19;20383;-80
2023/02/08 00:30:59;;;;;;;16.37;10.13;;;-6.10;99.90;;;;;;7381509;19;20905;-78
2023/02/08 00:33:24;;;;;;;18.27;11.45;;;-6.10;99.90;;;;;;7381321;19;20746;-79
2023/02/08 00:35:52;;;;;;;18.17;10.60;;;-6.00;99.90;;;;;;7384174;19;20337;-78
2023/02/08 00:38:18;;;;;;;17.65;11.55;;;-6.00;99.90;;;;;;7382691;19;20742;-76
2023/02/08 00:40:44;;;;;;;19.90;11.43;;;-6.10;99.90;;;;;;7382170;19;20345;-77
2023/02/08 00:43:10;;;;;;;20.48;13.43;;;-6.10;99.90;;;;;;7383151;19;21107;-77
2023/02/08 00:45:36;;;;;;;18.63;12.30;;;-6.20;99.90;;;;;;7381155;19;21177;-77
2023/02/08 00:48:01;;;;;;;14.48;10.38;;;-6.30;99.90;;;;;;7383587;19;20316;-79
2023/02/08 00:50:27;;;;;;;21.23;12.48;;;-6.30;99.90;;;;;;7383513;19;20325;-80
2023/02/08 00:52:52;;;;;;;22.67;10.90;;;-6.20;99.90;;;;;;7378114;19;20385;-79
2023/02/08 00:55:18;;;;;;;21.23;10.60;;;-6.30;99.90;;;;;;7381804;19;20376;-78
2023/02/08 00:57:44;;;;;;;16.17;10.90;;;-6.30;99.90;;;;;;7382114;19;20686;-77
2023/02/08 01:00:12;;;;;;;12.97;9.07;;;-6.30;99.90;;;;;;7380019;19;20322;-84
2023/02/08 01:02:38;;;;;;;19.45;11.35;;;-6.30;99.90;;;;;;7384009;19;20336;-77
2023/02/08 01:05:03;;;;;;;14.55;10.38;;;-6.30;99.90;;;;;;7380250;19;21231;-80
2023/02/08 01:07:29;;;;;;;16.13;9.38;;;-6.20;99.90;;;;;;7382060;19;20317;-78
2023/02/08 01:10:00;;;;;;;20.02;11.82;;;-6.20;99.90;;;;;;7381173;19;20343;-78
2023/02/08 01:12:26;;;;;;;20.63;10.93;;;-6.20;99.90;;;;;;7378969;19;20667;-79
2023/02/08 01:14:52;;;;;;;15.98;10.68;;;-6.20;99.90;;;;;;7381719;19;20329;-78
2023/02/08 01:17:17;;;;;;;18.23;10.77;;;-6.20;99.90;;;;;;7382785;19;20325;-79
2023/02/08 01:19:43;;;;;;;15.82;10.07;;;-6.20;99.90;;;;;;7372612;19;20348;-78
2023/02/08 01:22:08;;;;;;;19.30;11.57;;;-6.20;99.90;;;;;;7382040;19;20818;-78
2023/02/08 01:24:34;;;;;;;14.50;8.73;;;-6.20;99.90;;;;;;7383604;19;20329;-80
2023/02/08 01:27:00;;;;;;;15.68;11.60;;;-6.30;99.90;;;;;;7382323;19;20323;-79
2023/02/08 01:29:25;;;;;;;19.50;10.70;;;-6.30;99.90;;;;;;7381634;19;20348;-79
2023/02/08 01:31:51;;;;;;;18.10;10.70;;;-6.30;99.90;;;;;;7381952;19;20728;-81
2023/02/08 01:34:16;;;;;;;15.40;9.73;;;-6.30;99.90;;;;;;7380452;19;21156;-78
2023/02/08 01:36:42;;;;;;;21.05;10.90;;;-6.20;99.90;;;;;;7382114;19;20348;-79
2023/02/08 01:39:09;;;;;;;21.20;12.27;;;-6.20;99.90;;;;;;7383430;19;20301;-79
2023/02/08 01:41:38;;;;;;;17.92;11.18;;;-6.30;99.90;;;;;;7382445;19;20898;-79
2023/02/08 01:44:43;;;;;;;15.75;9.18;;;-6.30;99.90;;;;;;7379406;19;20321;-78
2023/02/08 01:47:08;;;;;;;17.73;9.93;;;-6.30;99.90;;;;;;7179455;19;2004520;-77
2023/02/08 01:49:34;;;;;;;19.63;10.10;;;-6.30;99.90;;;;;;7382773;19;20335;-78
2023/02/08 01:52:07;;;;;;;16.15;9.30;;;-6.30;99.90;;;;;;7380587;19;20426;-79
2023/02/08 01:54:36;;;;;;;16.65;9.27;;;-6.30;99.90;;;;;;7381541;19;20329;-79
2023/02/08 01:57:01;;;;;;;14.67;8.40;;;-6.20;99.90;;;;;;7382619;19;20322;-78
2023/02/08 01:59:44;;;;;;;15.52;8.98;;;-6.20;99.90;;;;;;7381124;19;20316;-78
2023/02/08 02:02:11;;;;;;;16.67;9.63;;;-6.10;99.90;;;;;;7278450;19;2017927;-79
2023/02/08 02:04:37;;;;;;;12.55;8.93;;;-6.10;99.90;;;;;;7376247;19;20380;-78
2023/02/08 02:07:02;;;;;;;16.83;10.80;;;-6.10;99.90;;;;;;7381761;19;20317;-78
2023/02/08 02:09:38;;;;;;;23.63;12.75;;;-6.10;99.90;;;;;;7379447;19;20835;-77
2023/02/08 02:12:05;;;;;;;20.23;12.55;;;-6.10;99.90;;;;;;7380717;19;20308;-78
2023/02/08 02:14:30;;;;;;;19.10;12.27;;;-6.20;99.90;;;;;;7380564;19;20320;-82
2023/02/08 02:16:59;;;;;;;18.33;11.93;;;-6.20;99.90;;;;;;7379559;19;20332;-79
2023/02/08 02:19:30;;;;;;;17.58;11.43;;;-6.20;99.90;;;;;;7380841;19;20312;-78
2023/02/08 02:21:59;;;;;;;20.73;11.10;;;-6.20;99.90;;;;;;7381411;19;20373;-79
2023/02/08 02:24:54;;;;;;;18.27;11.25;;;-6.20;99.90;;;;;;7380120;19;20312;-79
2023/02/08 02:27:30;;;;;;;14.93;10.02;;;-6.30;99.90;;;;;;7278987;19;2004603;-79
2023/02/08 02:30:11;;;;;;;12.85;8.93;;;-6.30;99.90;;;;;;7379880;19;20332;-80
2023/02/08 02:32:41;;;;;;;16.55;11.02;;;-6.20;99.90;;;;;;7381053;19;20438;-78
2023/02/08 02:35:42;;;;;;;15.98;9.55;;;-6.20;99.90;;;;;;7380278;19;20328;-79
2023/02/08 02:38:13;;;;;;;19.23;11.63;;;-6.30;99.90;;;;;;7173933;19;2004266;-78
2023/02/08 02:40:54;;;;;;;14.90;9.82;;;-6.50;99.90;;;;;;7278481;19;2006431;-78
2023/02/08 02:43:42;;;;;;;19.25;10.52;;;-6.50;99.90;;;;;;7378740;19;20333;-75
2023/02/08 02:46:20;;;;;;;14.55;9.65;;;-6.50;99.90;;;;;;7379399;19;20309;-78
2023/02/08 02:49:11;;;;;;;13.13;9.52;;;-6.50;99.90;;;;;;7279941;19;2004416;-78
2023/02/08 02:52:05;;;;;;;16.33;9.95;;;-6.50;99.90;;;;;;7378070;19;20360;-78
2023/02/08 02:54:51;;;;;;;16.33;10.13;;;-6.50;99.90;;;;;;7276571;19;2005871;-81
2023/02/08 02:57:23;;;;;;;17.10;10.15;;;-6.50;99.90;;;;;;7277577;19;2004410;-79
2023/02/08 02:59:49;;;;;;;14.63;9.87;;;-6.50;99.90;;;;;;7379320;19;20466;-77
2023/02/08 03:02:14;;;;;;;16.43;10.63;;;-6.50;99.90;;;;;;7377619;19;20387;-81
2023/02/08 03:04:40;;;;;;;16.70;10.20;;;-6.40;99.90;;;;;;7379612;19;20337;-78
2023/02/08 03:07:34;;;;;;;14.47;9.67;;;-6.40;99.90;;;;;;7381433;19;20325;-83
2023/02/08 03:10:38;;;;;;;13.40;9.37;;;-6.40;99.90;;;;;;7275083;19;2019110;-80
2023/02/08 03:13:28;;;;;;;13.93;10.23;;;-6.40;99.90;;;;;;7276422;19;2004478;-79
2023/02/08 03:16:00;;;;;;;16.02;11.10;;;-6.40;99.90;;;;;;7278587;19;2004376;-79
2023/02/08 03:18:45;;;;;;;17.95;9.98;;;-6.50;99.90;;;;;;7377253;19;20323;-81
2023/02/08 03:21:28;;;;;;;18.33;10.93;;;-6.50;99.90;;;;;;7275564;19;2020068;-77
2023/02/08 03:23:55;;;;;;;16.77;10.57;;;-6.60;99.90;;;;;;7378868;19;20370;-78
2023/02/08 03:26:42;;;;;;;18.98;11.48;;;-6.50;99.90;;;;;;7378301;19;20340;-79
2023/02/08 03:29:16;;;;;;;19.88;10.68;;;-6.50;99.90;;;;;;7379939;19;20392;-80
2023/02/08 03:31:48;;;;;;;19.17;11.70;;;-6.60;99.90;;;;;;7275275;19;2020051;-78
2023/02/08 03:34:20;;;;;;;19.58;11.13;;;-6.60;99.90;;;;;;7376771;19;20873;-77
2023/02/08 03:36:52;;;;;;;18.38;12.00;;;-6.50;99.90;;;;;;7379431;19;20345;-79
2023/02/08 03:39:22;;;;;;;20.20;11.68;;;-6.60;99.90;;;;;;7376777;19;20320;-78
2023/02/08 03:41:49;;;;;;;17.15;11.77;;;-6.60;99.90;;;;;;7378190;19;20391;-79
2023/02/08 03:44:34;;;;;;;20.83;12.15;;;-6.70;99.90;;;;;;7375020;19;20321;-79
2023/02/08 03:47:17;;;;;;;20.60;11.27;;;-6.70;99.90;;;;;;7379967;19;20336;-78
2023/02/08 03:49:43;;;;;;;22.77;11.77;;;-6.80;99.90;;;;;;7274372;19;2018877;-79
2023/02/08 03:52:09;;;;;;;21.03;11.43;;;-6.60;99.90;;;;;;7377796;19;20312;-78
2023/02/08 03:54:36;;;;;;;23.60;13.55;;;-6.70;99.90;;;;;;7378333;19;20340;-78
2023/02/08 03:57:09;;;;;;;22.40;11.80;;;-6.80;99.90;;;;;;7376498;19;20342;-79
2023/02/08 03:59:40;;;;;;;18.30;11.80;;;-6.80;99.90;;;;;;7378146;19;20352;-77
2023/02/08 04:02:08;;;;;;;24.98;14.10;;;-6.80;99.90;;;;;;7376156;19;20308;-82
2023/02/08 04:04:36;;;;;;;20.52;13.40;;;-6.90;99.90;;;;;;7383281;19;20332;-81
2023/02/08 04:07:01;;;;;;;25.27;12.68;;;-7.00;99.90;;;;;;7386691;19;20319;-77
2023/02/08 04:09:27;;;;;;;20.77;12.65;;;-7.00;99.90;;;;;;7385755;19;20309;-77
2023/02/08 04:11:52;;;;;;;22.37;12.97;;;-7.00;99.90;;;;;;7385755;19;20451;-81
2023/02/08 04:14:18;;;;;;;23.58;12.98;;;-7.00;99.90;;;;;;7381726;19;20331;-79
2023/02/08 04:16:43;;;;;;;21.13;12.40;;;-6.90;99.90;;;;;;7384123;19;21227;-79
2023/02/08 04:19:09;;;;;;;20.73;13.13;;;-6.90;99.90;;;;;;7383601;19;20321;-78
2023/02/08 04:21:35;;;;;;;21.13;12.23;;;-6.90;99.90;;;;;;7384938;19;20313;-79
2023/02/08 04:24:00;;;;;;;21.03;12.80;;;-6.90;99.90;;;;;;7383376;19;20397;-78
2023/02/08 04:26:26;;;;;;;21.95;13.27;;;-6.80;99.90;;;;;;7386163;19;20363;-78
2023/02/08 04:28:51;;;;;;;21.27;12.93;;;-6.80;99.90;;;;;;7383627;19;20877;-77
2023/02/08 04:31:17;;;;;;;22.33;14.30;;;-6.80;99.90;;;;;;7383946;19;21062;-78
2023/02/08 04:33:43;;;;;;;22.05;12.63;;;-6.70;99.90;;;;;;7381573;19;20459;-78
2023/02/08 04:36:08;;;;;;;23.13;14.33;;;-6.70;99.90;;;;;;7382958;19;20309;-78
2023/02/08 04:38:34;;;;;;;22.52;13.02;;;-6.70;99.90;;;;;;7382961;19;20780;-80
2023/02/08 04:40:59;;;;;;;23.58;14.27;;;-6.70;99.90;;;;;;7382387;19;20353;-78
2023/02/08 04:43:25;;;;;;;21.13;13.37;;;-6.70;99.90;;;;;;7383899;19;20917;-78
2023/02/08 04:45:51;;;;;;;25.13;14.02;;;-6.70;99.90;;;;;;7384463;19;20379;-78
2023/02/08 04:48:17;;;;;;;27.27;15.27;;;-6.70;99.90;;;;;;7383081;19;20353;-79
2023/02/08 04:50:42;;;;;;;28.60;16.47;;;-6.70;99.90;;;;;;7382612;19;20320;-79
2023/02/08 04:53:08;;;;;;;27.07;15.67;;;-6.80;99.90;;;;;;7380493;19;20311;-80
2023/02/08 04:55:33;;;;;;;26.33;15.73;;;-6.80;99.90;;;;;;7384747;19;20341;-78
2023/02/08 04:57:59;;;;;;;29.80;15.00;;;-6.80;99.90;;;;;;7378806;19;20340;-80
2023/02/08 05:00:24;;;;;;;27.80;17.05;;;-6.70;99.90;;;;;;7380490;19;20412;-79
2023/02/08 05:02:53;;;;;;;27.20;16.33;;;-6.90;99.90;;;;;;7382521;19;20332;-79
2023/02/08 05:05:19;;;;;;;25.77;13.80;;;-6.90;99.90;;;;;;7383165;19;20373;-85
2023/02/08 05:07:45;;;;;;;26.83;14.87;;;-6.90;99.90;;;;;;7381023;19;20410;-78
2023/02/08 05:10:10;;;;;;;29.20;15.82;;;-6.80;99.90;;;;;;7379006;19;20432;-78
2023/02/08 05:12:36;;;;;;;22.97;13.93;;;-6.80;99.90;;;;;;7385160;19;20324;-78
2023/02/08 05:15:02;;;;;;;23.77;14.57;;;-6.80;99.90;;;;;;7378246;19;20317;-78
2023/02/08 05:17:27;;;;;;;20.77;13.07;;;-6.80;99.90;;;;;;7382262;19;20331;-78
2023/02/08 05:19:53;;;;;;;29.87;16.60;;;-6.70;99.90;;;;;;7384542;19;20360;-78
2023/02/08 05:22:18;;;;;;;26.38;15.52;;;-6.70;99.90;;;;;;7381426;19;20441;-77
2023/02/08 05:24:44;;;;;;;27.73;16.87;;;-6.70;99.90;;;;;;7380817;19;20340;-80
2023/02/08 05:27:09;;;;;;;24.88;15.77;;;-6.70;99.90;;;;;;7381693;19;20317;-79
2023/02/08 05:29:35;;;;;;;23.27;15.37;;;-6.60;99.90;;;;;;7382501;19;20356;-78
2023/02/08 05:32:00;;;;;;;27.70;16.67;;;-6.60;99.90;;;;;;7379961;19;20316;-77
2023/02/08 05:34:26;;;;;;;28.35;17.65;;;-6.50;99.90;;;;;;7380577;19;20321;-77
2023/02/08 05:36:52;;;;;;;25.33;17.07;;;-6.50;99.90;;;;;;7383518;19;20348;-78
2023/02/08 05:39:17;;;;;;;25.00;15.73;;;-6.40;99.90;;;;;;7382377;19;20388;-77
2023/02/08 05:41:43;;;;;;;27.00;16.03;;;-6.40;99.90;;;;;;7382435;19;20703;-77
2023/02/08 05:44:08;;;;;;;23.30;14.83;;;-6.30;99.90;;;;;;7378893;19;20377;-79
2023/02/08 05:46:34;;;;;;;28.10;15.68;;;-6.30;99.90;;;;;;7381641;19;20558;-81
2023/02/08 05:49:00;;;;;;;21.97;14.03;;;-6.20;99.90;;;;;;7381175;19;20409;-76
2023/02/08 05:51:26;;;;;;;21.98;13.60;;;-6.20;99.90;;;;;;7381314;19;20329;-78
2023/02/08 05:53:51;;;;;;;30.83;16.80;;;-6.20;99.90;;;;;;7381366;19;20872;-78
2023/02/08 05:56:17;;;;;;;34.00;20.80;;;-6.10;99.90;;;;;;7379386;19;20374;-81
2023/02/08 05:58:43;;;;;;;26.85;15.88;;;-6.10;99.90;;;;;;7378269;19;20321;-78
2023/02/08 06:01:09;;;;;;;25.00;15.80;;;-6.00;99.90;;;;;;7383196;19;20700;-80
2023/02/08 06:03:35;;;;;;;22.67;13.40;;;-6.10;99.90;;;;;;7380390;19;20387;-78
2023/02/08 06:06:00;;;;;;;28.67;17.80;;;-6.10;99.90;;;;;;7380893;19;20328;-77
2023/02/08 06:08:26;;;;;;;19.38;13.75;;;-6.10;99.90;;;;;;7381054;19;20391;-78
2023/02/08 06:10:52;;;;;;;27.20;17.73;;;-6.20;99.90;;;;;;7379080;19;20364;-77
2023/02/08 06:13:17;;;;;;;21.53;14.47;;;-6.10;99.90;;;;;;7377097;19;20323;-76
2023/02/08 06:15:43;;;;;;;27.88;18.42;;;-6.10;99.90;;;;;;7377047;19;20345;-75
2023/02/08 06:18:09;;;;;;;40.60;22.93;;;-6.10;99.90;;;;;;7377754;19;20329;-78
2023/02/08 06:20:34;;;;;;;28.20;18.73;;;-6.00;99.90;;;;;;7379249;19;20367;-78
2023/02/08 06:23:00;;;;;;;29.52;18.63;;;-5.90;99.90;;;;;;7379435;19;20316;-80
2023/02/08 06:25:26;;;;;;;35.67;23.73;;;-5.80;99.90;;;;;;7378791;19;20337;-78
2023/02/08 06:27:51;;;;;;;32.23;21.27;;;-5.80;99.90;;;;;;7377522;19;20336;-77
2023/02/08 06:30:17;;;;;;;26.83;18.05;;;-5.60;99.90;;;;;;7379682;19;20862;-77
2023/02/08 06:32:42;;;;;;;31.00;20.23;;;-5.50;99.90;;;;;;7379531;19;20369;-78
2023/02/08 06:35:08;;;;;;;32.33;19.90;;;-5.40;99.90;;;;;;7380454;19;20319;-76
2023/02/08 06:37:35;;;;;;;31.63;19.70;;;-5.40;99.90;;;;;;7380849;19;20360;-78
2023/02/08 06:40:00;;;;;;;27.75;15.55;;;-5.30;99.90;;;;;;7379231;19;20325;-76
2023/02/08 06:42:26;;;;;;;30.33;18.15;;;-5.30;99.90;;;;;;7377449;19;21060;-77
2023/02/08 06:44:54;;;;;;;30.48;18.38;;;-5.30;99.90;;;;;;7378219;19;20345;-79
2023/02/08 06:47:20;;;;;;;34.95;20.92;;;-5.30;99.90;;;;;;7376664;19;20442;-77
2023/02/08 06:49:46;;;;;;;40.95;26.85;;;-5.30;99.90;;;;;;7378484;19;20387;-77
2023/02/08 06:52:12;;;;;;;33.95;20.90;;;-5.30;99.90;;;;;;7379855;19;20392;-76
2023/02/08 06:54:37;;;;;;;31.47;19.57;;;-5.30;99.90;;;;;;7379221;19;20346;-85
2023/02/08 06:57:03;;;;;;;29.33;19.15;;;-5.30;99.90;;;;;;7377796;19;20316;-77
2023/02/08 06:59:29;;;;;;;32.73;20.83;;;-5.30;99.90;;;;;;7379017;19;20380;-77
2023/02/08 07:01:54;;;;;;;30.98;18.80;;;-5.30;99.90;;;;;;7377665;19;20417;-81
2023/02/08 07:04:20;;;;;;;31.80;19.23;;;-5.30;99.90;;;;;;7377755;19;20778;-80
2023/02/08 07:06:48;;;;;;;23.07;15.93;;;-5.30;99.90;;;;;;7380548;19;20365;-83
2023/02/08 07:09:15;;;;;;;36.55;20.45;;;-5.30;99.90;;;;;;7381471;19;20328;-81
2023/02/08 07:11:40;;;;;;;28.75;17.48;;;-5.30;99.90;;;;;;7378206;19;20371;-80
2023/02/08 07:14:06;;;;;;;25.88;16.50;;;-5.20;99.90;;;;;;7378612;19;20337;-81
2023/02/08 07:16:31;;;;;;;27.37;17.47;;;-5.20;99.90;;;;;;7380384;19;20390;-83
2023/02/08 07:18:57;;;;;;;24.40;16.05;;;-5.20;99.90;;;;;;7379209;19;20360;-83
2023/02/08 07:21:23;;;;;;;26.03;14.90;;;-5.10;99.90;;;;;;7380271;19;20379;-82
2023/02/08 07:23:48;;;;;;;25.83;16.33;;;-5.00;99.90;;;;;;7378706;19;20339;-81
2023/02/08 07:26:14;;;;;;;28.35;18.83;;;-5.00;99.90;;;;;;7380098;19;20305;-81
2023/02/08 07:28:40;;;;;;;25.30;16.38;;;-5.00;99.90;;;;;;7385552;19;20900;-82
2023/02/08 07:31:10;;;;;;;31.30;19.63;;;-5.00;99.90;;;;;;7381776;19;20344;-80
2023/02/08 07:33:37;;;;;;;30.97;20.53;;;-5.00;99.90;;;;;;7381711;19;20313;-80
2023/02/08 07:36:04;;;;;;;30.50;19.35;;;-5.00;99.90;;;;;;7382693;19;20321;-83
2023/02/08 07:38:30;;;;;;;32.60;17.95;;;-5.00;99.90;;;;;;7383239;19;20857;-80
2023/02/08 07:41:07;;;;;;;23.45;16.20;;;-5.00;99.90;;;;;;7387034;19;20328;-80
2023/02/08 07:43:34;;;;;;;23.63;14.07;;;-5.00;99.90;;;;;;7387203;19;20304;-80
2023/02/08 07:46:06;;;;;;;23.70;15.17;;;-4.90;99.90;;;;;;7390822;19;20320;-83
2023/02/08 07:48:32;;;;;;;25.58;15.45;;;-4.90;99.90;;;;;;7389012;19;20328;-81
2023/02/08 07:51:04;;;;;;;24.55;15.45;;;-4.90;99.90;;;;;;7383666;19;20308;-80
2023/02/08 07:53:30;;;;;;;27.43;16.83;;;-4.80;99.90;;;;;;7383503;19;20872;-82
2023/02/08 07:55:55;;;;;;;21.37;14.13;;;-4.80;99.90;;;;;;7385130;19;20366;-80
2023/02/08 07:58:21;;;;;;;23.95;15.68;;;-4.80;99.90;;;;;;7386494;19;20975;-79
2023/02/08 08:00:47;;;;;;;27.20;16.03;;;-4.70;99.90;;;;;;7385790;19;20383;-80
2023/02/08 08:03:12;;;;;;;24.27;15.65;;;-4.70;99.90;;;;;;7385012;19;20360;-82
2023/02/08 08:05:41;;;;;;;25.67;16.03;;;-4.60;99.90;;;;;;7389922;19;20312;-82
2023/02/08 08:08:07;;;;;;;27.05;14.90;;;-4.60;99.90;;;;;;7384811;19;20341;-78
2023/02/08 08:10:33;;;;;;;29.53;16.20;;;-4.50;99.90;;;;;;7381819;19;20308;-85
2023/02/08 08:12:58;;;;;;;25.70;15.47;;;-4.40;99.90;;;;;;7384132;19;20416;-84
2023/02/08 08:15:24;;;;;;;26.33;14.93;;;-4.40;99.90;;;;;;7383603;19;20349;-80
2023/02/08 08:17:50;;;;;;;27.07;15.97;;;-4.30;99.90;;;;;;7386890;19;20400;-84
2023/02/08 08:20:15;;;;;;;25.27;16.83;;;-4.30;99.90;;;;;;7384492;19;20340;-85
2023/02/08 08:22:41;;;;;;;24.38;15.38;;;-4.30;99.90;;;;;;7395024;19;20965;-83
2023/02/08 08:25:07;;;;;;;28.87;17.30;;;-4.20;99.90;;;;;;7388897;19;20355;-80
2023/02/08 08:27:33;;;;;;;27.15;16.48;;;-4.20;99.90;;;;;;7388033;19;20316;-79
2023/02/08 08:29:59;;;;;;;24.48;16.13;;;-4.10;99.90;;;;;;7384793;19;20336;-81
2023/02/08 08:32:25;;;;;;;25.10;15.25;;;-4.10;99.90;;;;;;7384991;19;20320;-80
2023/02/08 08:34:52;;;;;;;26.10;15.30;;;-4.00;99.90;;;;;;7383588;19;20316;-79
2023/02/08 08:37:17;;;;;;;24.00;16.00;;;-4.00;99.90;;;;;;7383462;19;20375;-81
2023/02/08 08:39:43;;;;;;;22.30;15.23;;;-3.90;99.90;;;;;;7384386;19;20350;-83
2023/02/08 08:42:08;;;;;;;27.27;16.40;;;-3.90;99.90;;;;;;7381684;19;20320;-76
2023/02/08 08:44:35;;;;;;;22.10;15.00;;;-3.80;99.90;;;;;;7379793;19;20692;-81
2023/02/08 08:47:00;;;;;;;23.33;16.10;;;-3.70;99.90;;;;;;7381969;19;20360;-78
2023/02/08 08:49:26;;;;;;;24.55;15.55;;;-3.60;99.90;;;;;;7381152;19;20878;-79
2023/02/08 08:51:52;;;;;;;28.37;16.47;;;-3.60;99.90;;;;;;7380867;19;20336;-78
2023/02/08 08:54:18;;;;;;;25.63;17.90;;;-3.50;99.90;;;;;;7378364;19;20404;-79
2023/02/08 08:56:43;;;;;;;24.30;16.02;;;-3.40;99.90;;;;;;7379410;19;20316;-77
2023/02/08 08:59:10;;;;;;;25.23;16.33;;;-3.30;99.90;;;;;;7379662;19;20447;-78
2023/02/08 09:01:35;;;;;;;26.83;17.58;;;-3.30;99.90;;;;;;7378592;19;20312;-79
2023/02/08 09:04:01;;;;;;;25.77;15.63;;;-3.20;99.90;;;;;;7383889;19;20348;-80
2023/02/08 09:06:27;;;;;;;30.10;16.37;;;-3.10;99.90;;;;;;7384912;19;20367;-79
2023/02/08 09:08:52;;;;;;;24.60;15.93;;;-3.00;99.90;;;;;;7384355;19;20417;-77
2023/02/08 09:11:18;;;;;;;23.15;15.27;;;-2.90;99.90;;;;;;7380642;19;20349;-82
2023/02/08 09:13:44;;;;;;;22.60;15.17;;;-2.80;99.90;;;;;;7379034;19;20304;-86
2023/02/08 09:16:14;;;;;;;23.08;14.55;;;-2.70;99.90;;;;;;7393579;19;20328;-80
2023/02/08 09:18:40;;;;;;;25.17;14.77;;;-2.70;99.90;;;;;;7393310;19;20303;-80
2023/02/08 09:21:06;;;;;;;24.63;15.55;;;-2.60;99.90;;;;;;7390232;19;20368;-80
2023/02/08 09:23:32;;;;;;;23.48;15.70;;;-2.50;99.90;;;;;;7386253;19;20340;-80
2023/02/08 09:25:58;;;;;;;25.27;17.40;;;-2.40;99.90;;;;;;7391130;19;20335;-81
2023/02/08 09:28:23;;;;;;;25.30;16.83;;;-2.40;99.90;;;;;;7392531;19;20332;-79
2023/02/08 09:30:49;;;;;;;29.93;17.67;;;-2.20;99.90;;;;;;7387824;19;20355;-83
2023/02/08 09:33:14;;;;;;;26.53;17.60;;;-2.20;99.90;;;;;;7392184;19;20309;-80
2023/02/08 09:35:40;;;;;;;26.90;17.38;;;-2.10;99.90;;;;;;7390384;19;20860;-80
2023/02/08 09:38:06;;;;;;;30.47;17.80;;;-2.10;99.90;;;;;;7390145;19;20317;-78
2023/02/08 09:40:45;;;;;;;25.27;16.50;;;-2.10;99.90;;;;;;7386807;19;20351;-80
2023/02/08 09:43:42;;;;;;;24.38;16.85;;;-1.90;99.90;;;;;;7388201;19;20364;-82
2023/02/08 09:46:14;;;;;;;25.42;17.80;;;-1.90;99.90;;;;;;7283624;19;2004627;-81
2023/02/08 09:48:39;;;;;;;29.73;17.90;;;-1.80;99.90;;;;;;7395051;19;21135;-78
2023/02/08 09:51:28;;;;;;;22.57;16.03;;;-1.70;99.90;;;;;;7398977;19;20353;-82
2023/02/08 09:53:58;;;;;;;25.80;17.05;;;-1.70;99.90;;;;;;7297942;19;2004563;-81
2023/02/08 09:56:27;;;;;;;25.52;17.05;;;-1.40;99.90;;;;;;7403833;19;20316;-82
2023/02/08 09:58:53;;;;;;;27.70;16.63;;;-1.50;99.90;;;;;;7404357;19;20336;-79
2023/02/08 10:01:30;;;;;;;25.52;17.45;;;-1.40;99.90;;;;;;7401976;19;20351;-81
2023/02/08 10:04:15;;;;;;;23.42;15.25;;;-1.40;99.90;;;;;;7404019;19;20320;-81
2023/02/08 10:06:41;;;;;;;24.80;15.70;;;-1.40;99.90;;;;;;7391354;19;20902;-80
2023/02/08 10:09:09;;;;;;;27.58;16.38;;;-1.30;99.90;;;;;;7383786;19;20332;-82
2023/02/08 10:11:49;;;;;;;25.08;15.02;;;-1.10;99.90;;;;;;7381878;19;20353;-76
2023/02/08 10:14:33;;;;;;;24.65;14.25;;;-1.10;99.90;;;;;;7277535;19;2004585;-79
2023/02/08 10:17:19;;;;;;;25.17;14.82;;;-1.00;99.90;;;;;;7382616;19;20323;-78
2023/02/08 10:19:48;;;;;;;22.03;15.20;;;-1.00;99.90;;;;;;7273916;19;2005065;-79
2023/02/08 10:22:38;;;;;;;20.27;14.13;;;-1.00;99.90;;;;;;7379788;19;20387;-78
2023/02/08 10:25:29;;;;;;;20.50;15.00;;;-0.90;99.90;;;;;;7379237;19;20786;-77
2023/02/08 10:28:13;;;;;;;20.43;13.73;;;-0.90;99.90;;;;;;7281583;19;2004568;-86
2023/02/08 10:30:50;;;;;;;22.13;13.65;;;-0.70;99.90;;;;;;7377864;19;20339;-78
2023/02/08 10:33:53;;;;;;;23.50;14.07;;;-0.70;99.90;;;;;;7277352;19;2019699;-78
2023/02/08 10:36:20;;;;;;;21.25;14.40;;;-0.60;99.90;;;;;;7276961;19;2018999;-82
2023/02/08 10:38:49;;;;;;;23.60;14.88;;;-0.50;99.90;;;;;;7381334;19;20359;-82
2023/02/08 10:41:19;;;;;;;24.70;14.65;;;-0.50;99.90;;;;;;7377576;19;21141;-80
2023/02/08 10:43:51;;;;;;;23.77;13.85;;;-0.40;99.90;;;;;;7378224;19;20340;-79
2023/02/08 10:46:37;;;;;;;19.80;13.73;;;-0.40;99.90;;;;;;7382178;19;20870;-80
2023/02/08 10:49:39;;;;;;;22.33;13.60;;;-0.30;99.90;;;;;;7380677;19;20356;-82
2023/02/08 10:52:05;;;;;;;24.77;14.88;;;-0.20;99.90;;;;;;7281586;19;2018855;-82
2023/02/08 10:54:33;;;;;;;21.47;13.90;;;0.00;99.90;;;;;;7386529;19;20312;-83
2023/02/08 10:57:01;;;;;;;18.45;13.27;;;0.00;99.90;;;;;;7387206;19;20308;-82
2023/02/08 10:59:30;;;;;;;20.02;12.88;;;0.10;99.90;;;;;;7383832;19;20933;-82
2023/02/08 11:01:56;;;;;;;20.98;14.00;;;0.10;99.90;;;;;;7383986;19;20890;-83
2023/02/08 11:04:21;;;;;;;17.77;12.83;;;0.10;99.90;;;;;;7383872;19;20309;-82
2023/02/08 11:06:48;;;;;;;16.85;12.90;;;0.10;99.90;;;;;;7382415;19;20312;-81
2023/02/08 11:09:28;;;;;;;19.73;13.10;;;0.20;99.90;;;;;;7383550;19;20670;-81
2023/02/08 11:11:54;;;;;;;19.08;12.20;;;0.10;99.90;;;;;;7383927;19;20320;-83
2023/02/08 11:14:25;;;;;;;18.75;13.13;;;0.20;99.90;;;;;;7385709;19;20316;-81
2023/02/08 11:16:55;;;;;;;20.55;12.48;;;0.40;99.90;;;;;;7388074;19;20308;-84
2023/02/08 11:19:35;;;;;;;18.35;13.20;;;0.50;99.90;;;;;;7384397;19;20329;-80
2023/02/08 11:22:01;;;;;;;19.50;13.10;;;0.70;99.90;;;;;;7388087;19;20313;-83
2023/02/08 11:24:40;;;;;;;18.60;13.13;;;0.70;99.90;;;;;;7385440;19;20391;-81
2023/02/08 11:27:46;;;;;;;17.10;11.93;;;0.80;99.90;;;;;;7385741;19;20325;-81
2023/02/08 11:30:35;;;;;;;17.38;12.10;;;1.00;99.90;;;;;;7368564;19;20335;-82
2023/02/08 11:33:17;;;;;;;21.08;13.68;;;1.10;99.90;;;;;;7387835;19;20372;-84
2023/02/08 11:35:51;;;;;;;18.95;12.52;;;1.20;99.90;;;;;;7392510;19;20305;-80
2023/02/08 11:38:17;;;;;;;19.25;13.10;;;1.20;99.90;;;;;;7287042;19;2004177;-82
2023/02/08 11:40:43;;;;;;;18.75;12.00;;;1.40;99.90;;;;;;7388994;19;20346;-81
2023/02/08 11:43:19;;;;;;;20.43;13.10;;;1.80;99.90;;;;;;7387648;19;20313;-81
2023/02/08 11:45:45;;;;;;;20.02;13.63;;;1.90;99.90;;;;;;7209773;19;2004287;-85
2023/02/08 11:48:48;;;;;;;19.33;12.43;;;1.90;99.90;;;;;;7367773;19;20327;-84
2023/02/08 11:51:23;;;;;;;21.17;12.60;;;2.10;99.90;;;;;;7224218;19;2004208;-86
2023/02/08 11:53:49;;;;;;;18.17;12.50;;;2.30;99.90;;;;;;7384050;19;20324;-83
2023/02/08 11:56:17;;;;;;;18.40;12.90;;;2.40;99.90;;;;;;7385380;19;20364;-82
2023/02/08 11:59:24;;;;;;;17.70;12.70;;;2.60;99.90;;;;;;7385632;19;20317;-80
2023/02/08 12:02:30;;;;;;;17.98;11.90;;;2.80;99.90;;;;;;7157045;19;2004366;-80
2023/02/08 12:05:13;;;;;;;17.00;11.68;;;2.80;99.90;;;;;;7260408;19;2004238;-82
2023/02/08 12:08:09;;;;;;;17.90;12.25;;;3.00;99.90;;;;;;7389410;19;20309;-86
2023/02/08 12:11:13;;;;;;;16.05;11.98;;;3.00;99.90;;;;;;7340463;19;20708;-88
2023/02/08 12:14:43;;;;;;;16.58;12.00;;;3.30;99.90;;;;;;7380930;19;20341;-82
2023/02/08 12:18:17;;;;;;;18.67;11.68;;;3.50;99.90;;;;;;7283100;19;2003646;-82
2023/02/08 12:20:47;;;;;;;16.98;11.45;;;3.80;99.90;;;;;;7260817;19;2004234;-81
2023/02/08 12:23:41;;;;;;;15.00;10.90;;;3.80;99.90;;;;;;7386523;19;20327;-85
2023/02/08 12:26:17;;;;;;;15.88;10.52;;;4.00;99.90;;;;;;7289094;19;2004502;-87
2023/02/08 12:29:15;;;;;;;16.27;10.02;;;4.20;99.90;;;;;;7391306;19;20309;-81
2023/02/08 12:32:24;;;;;;;15.90;9.57;;;4.30;99.90;;;;;;7189896;19;2004384;-85
2023/02/08 12:35:44;;;;;;;15.07;10.02;;;4.20;99.90;;;;;;7251608;19;2004377;-81
2023/02/08 12:42:07;;;;;;;15.95;10.35;;;4.10;99.90;;;;;;7185565;19;2004555;-82
2023/02/08 12:45:00;;;;;;;17.90;9.33;;;4.50;99.90;;;;;;7291237;19;2004235;-83
2023/02/08 12:47:43;;;;;;;14.90;10.05;;;4.50;99.90;;;;;;7287864;19;2004416;-83
2023/02/08 12:50:47;;;;;;;15.07;9.35;;;4.60;99.90;;;;;;7389232;19;20309;-80
2023/02/08 12:53:29;;;;;;;14.68;9.18;;;4.70;99.90;;;;;;7188806;19;2004659;-83